Time;durP1;ratioP1;P1;durP2;ratioP2;P2;SDS_P1;SDS_P2;PMS_P1;PMS_P2;Temp;Humidity;BMP_temperature;BMP_pressure;BME280_temperature;BME280_humidity;BME280_pressure;Samples;Min_cycle;Max_cycle;Signal;HPM_P1;HPM_P2
2021/04/22 00:01:27;;;;;;;4.30;1.30;;;;;;;;;;5093866;28;20474;-17
2021/04/22 00:03:52;;;;;;;1.60;1.50;;;;;;;;;;5094281;28;20020;-18
2021/04/22 00:06:17;;;;;;;1.25;0.95;;;;;;;;;;5094022;28;20107;-17
2021/04/22 00:08:43;;;;;;;2.67;1.30;;;;;;;;;;5093841;28;20397;-17
2021/04/22 00:11:08;;;;;;;1.65;1.15;;;;;;;;;;5093768;28;20032;-18
2021/04/22 00:13:33;;;;;;;4.40;1.58;;;;;;;;;;5093681;28;20012;-17
2021/04/22 00:16:01;;;;;;;1.35;1.00;;;;;;;;;;5093736;28;20055;-17
2021/04/22 00:18:26;;;;;;;3.30;1.48;;;;;;;;;;5093631;28;20081;-17
2021/04/22 00:20:52;;;;;;;5.10;1.35;;;;;;;;;;5093631;28;20028;-17
2021/04/22 00:23:17;;;;;;;2.80;1.23;;;;;;;;;;5092235;28;20028;-16
2021/04/22 00:25:43;;;;;;;2.85;1.20;;;;;;;;;;5093700;28;20035;-18
2021/04/22 00:28:09;;;;;;;1.98;1.60;;;;;;;;;;5093436;28;20040;-17
2021/04/22 00:30:35;;;;;;;2.00;1.50;;;;;;;;;;5093197;28;20048;-17
2021/04/22 00:33:19;;;;;;;1.42;1.00;;;;;;;;;;5093666;28;20077;-17
2021/04/22 00:35:45;;;;;;;1.35;1.13;;;;;;;;;;5093578;28;20039;-17
2021/04/22 00:38:10;;;;;;;1.75;1.40;;;;;;;;;;5093305;28;20095;-16
2021/04/22 00:40:36;;;;;;;3.50;2.00;;;;;;;;;;5093288;28;20024;-17
2021/04/22 00:43:03;;;;;;;3.58;1.50;;;;;;;;;;5093239;28;20482;-17
2021/04/22 00:45:29;;;;;;;2.55;1.33;;;;;;;;;;5093081;28;20032;-16
2021/04/22 00:47:55;;;;;;;4.28;1.38;;;;;;;;;;5093093;28;20019;-17
2021/04/22 00:50:26;;;;;;;3.55;1.60;;;;;;;;;;5091799;28;20067;-17
2021/04/22 00:52:52;;;;;;;2.10;1.35;;;;;;;;;;5093299;28;20100;-16
2021/04/22 00:55:18;;;;;;;2.88;1.65;;;;;;;;;;5108741;28;20032;-17
2021/04/22 00:58:08;;;;;;;2.35;1.55;;;;;;;;;;5092933;28;20068;-17
2021/04/22 01:00:35;;;;;;;5.10;1.92;;;;;;;;;;5093000;28;20032;-17
2021/04/22 01:03:25;;;;;;;3.60;2.00;;;;;;;;;;5092667;28;20058;-17
2021/04/22 01:05:53;;;;;;;2.58;1.45;;;;;;;;;;5092884;28;20016;-17
2021/04/22 01:08:18;;;;;;;3.08;2.15;;;;;;;;;;5093134;28;20409;-17
2021/04/22 01:10:44;;;;;;;4.40;2.35;;;;;;;;;;5092667;28;20118;-17
2021/04/22 01:13:09;;;;;;;3.00;2.30;;;;;;;;;;5092943;28;20366;-18
2021/04/22 01:15:35;;;;;;;3.17;2.20;;;;;;;;;;5092626;28;20028;-17
2021/04/22 01:18:01;;;;;;;2.25;1.80;;;;;;;;;;5092699;28;20012;-17
2021/04/22 01:20:35;;;;;;;2.05;1.83;;;;;;;;;;5092494;28;20470;-17
2021/04/22 01:23:02;;;;;;;4.55;2.47;;;;;;;;;;5092538;28;20530;-17
2021/04/22 01:25:31;;;;;;;5.53;2.10;;;;;;;;;;5092590;28;20023;-17
2021/04/22 01:27:57;;;;;;;3.85;1.98;;;;;;;;;;5092372;28;20044;-17
2021/04/22 01:30:26;;;;;;;2.13;1.55;;;;;;;;;;5092846;28;20035;-18
2021/04/22 01:32:52;;;;;;;3.22;1.77;;;;;;;;;;5092438;28;20493;-17
2021/04/22 01:35:18;;;;;;;3.03;1.42;;;;;;;;;;5092715;28;20016;-17
2021/04/22 01:37:43;;;;;;;3.85;1.67;;;;;;;;;;5092415;28;20039;-17
2021/04/22 01:40:10;;;;;;;9.57;3.05;;;;;;;;;;5092785;28;20024;-18
2021/04/22 01:42:35;;;;;;;3.25;2.25;;;;;;;;;;5092226;28;20036;-17
2021/04/22 01:45:01;;;;;;;2.40;2.20;;;;;;;;;;5092740;28;20020;-18
2021/04/22 01:47:26;;;;;;;2.17;1.90;;;;;;;;;;5092579;28;20474;-17
2021/04/22 01:49:52;;;;;;;2.70;1.98;;;;;;;;;;5092299;28;20045;-18
2021/04/22 01:52:17;;;;;;;6.10;2.28;;;;;;;;;;5092649;28;20027;-17
2021/04/22 01:54:42;;;;;;;3.30;2.47;;;;;;;;;;5091030;28;20491;-17
2021/04/22 01:57:08;;;;;;;5.78;2.70;;;;;;;;;;5092222;28;20093;-17
2021/04/22 01:59:34;;;;;;;5.13;2.92;;;;;;;;;;5092462;28;20044;-18
2021/04/22 02:01:59;;;;;;;2.63;2.35;;;;;;;;;;5092279;28;20111;-17
2021/04/22 02:04:25;;;;;;;3.75;2.40;;;;;;;;;;5092390;28;20087;-17
2021/04/22 02:06:50;;;;;;;8.07;3.05;;;;;;;;;;5092496;28;20028;-17
2021/04/22 02:09:15;;;;;;;2.88;2.25;;;;;;;;;;5092112;28;20466;-17
2021/04/22 02:11:41;;;;;;;3.75;2.95;;;;;;;;;;5092027;28;20032;-17
2021/04/22 02:14:06;;;;;;;5.68;3.50;;;;;;;;;;5093238;28;20513;-18
2021/04/22 02:16:32;;;;;;;4.85;3.80;;;;;;;;;;5096222;28;20028;-18
2021/04/22 02:18:57;;;;;;;3.35;2.85;;;;;;;;;;5096051;28;20027;-17
2021/04/22 02:21:22;;;;;;;7.53;3.08;;;;;;;;;;5096206;28;20028;-17
2021/04/22 02:23:48;;;;;;;4.88;3.70;;;;;;;;;;5095750;28;20024;-17
2021/04/22 02:26:13;;;;;;;5.07;3.83;;;;;;;;;;5095827;28;20024;-18
2021/04/22 02:28:38;;;;;;;4.90;3.70;;;;;;;;;;5095651;28;20052;-17
2021/04/22 02:31:04;;;;;;;7.63;4.47;;;;;;;;;;5095648;28;20036;-17
2021/04/22 02:33:29;;;;;;;4.22;3.53;;;;;;;;;;5095643;28;20034;-18
2021/04/22 02:35:55;;;;;;;4.32;2.83;;;;;;;;;;5095667;28;20032;-17
2021/04/22 02:38:20;;;;;;;5.13;3.63;;;;;;;;;;5095660;28;20356;-18
2021/04/22 02:40:46;;;;;;;5.28;3.50;;;;;;;;;;5095576;28;20489;-18
2021/04/22 02:43:13;;;;;;;6.63;3.53;;;;;;;;;;5095639;28;20024;-17
2021/04/22 02:45:40;;;;;;;5.95;3.85;;;;;;;;;;5095433;28;20115;-18
2021/04/22 02:48:06;;;;;;;3.85;2.95;;;;;;;;;;5095489;28;20016;-18
2021/04/22 02:50:33;;;;;;;6.97;3.63;;;;;;;;;;5095261;28;20131;-17
2021/04/22 02:52:59;;;;;;;4.15;2.95;;;;;;;;;;5095583;28;20020;-17
2021/04/22 02:55:24;;;;;;;6.07;3.97;;;;;;;;;;5110997;28;20407;-18
2021/04/22 02:57:50;;;;;;;15.82;3.83;;;;;;;;;;5111380;28;20028;-18
2021/04/22 03:00:17;;;;;;;5.00;3.33;;;;;;;;;;5095225;28;20116;-17
2021/04/22 03:02:42;;;;;;;4.18;3.42;;;;;;;;;;5095087;28;20055;-17
2021/04/22 03:05:08;;;;;;;5.05;3.67;;;;;;;;;;5095461;28;20039;-17
2021/04/22 03:07:33;;;;;;;4.72;3.13;;;;;;;;;;5094927;28;20012;-17
2021/04/22 03:09:59;;;;;;;4.25;3.30;;;;;;;;;;5095093;28;20044;-17
2021/04/22 03:12:24;;;;;;;7.45;3.10;;;;;;;;;;5095173;28;20020;-17
2021/04/22 03:14:50;;;;;;;3.70;2.88;;;;;;;;;;5094969;28;20105;-17
2021/04/22 03:17:15;;;;;;;5.20;3.58;;;;;;;;;;5094946;28;20012;-18
2021/04/22 03:19:41;;;;;;;4.72;3.00;;;;;;;;;;5094763;28;20063;-18
2021/04/22 03:22:06;;;;;;;8.68;3.28;;;;;;;;;;5094969;28;20027;-17
2021/04/22 03:24:32;;;;;;;4.55;3.10;;;;;;;;;;5094427;28;20039;-17
2021/04/22 03:26:58;;;;;;;7.10;3.35;;;;;;;;;;5094789;28;20027;-17
2021/04/22 03:29:23;;;;;;;4.13;3.65;;;;;;;;;;5094426;28;20048;-18
2021/04/22 03:31:48;;;;;;;4.78;3.25;;;;;;;;;;5094844;28;20115;-17
2021/04/22 03:34:14;;;;;;;5.13;3.20;;;;;;;;;;5093304;28;20556;-18
2021/04/22 03:36:39;;;;;;;4.10;3.30;;;;;;;;;;5094423;28;20523;-17
2021/04/22 03:39:05;;;;;;;5.82;3.58;;;;;;;;;;5094585;28;20066;-18
2021/04/22 03:41:31;;;;;;;6.18;2.88;;;;;;;;;;5094443;28;20023;-17
2021/04/22 03:43:56;;;;;;;6.30;2.85;;;;;;;;;;5094672;28;20028;-17
2021/04/22 03:46:22;;;;;;;4.25;3.03;;;;;;;;;;5094347;28;20474;-17
2021/04/22 03:48:47;;;;;;;3.50;3.00;;;;;;;;;;5094260;28;20028;-18
2021/04/22 03:51:12;;;;;;;4.38;3.53;;;;;;;;;;5094107;28;20031;-17
2021/04/22 03:53:38;;;;;;;7.28;3.63;;;;;;;;;;5094182;28;20059;-17
2021/04/22 03:56:03;;;;;;;4.45;3.50;;;;;;;;;;5092902;28;20020;-17
2021/04/22 03:58:28;;;;;;;3.90;3.03;;;;;;;;;;5094002;28;20044;-17
2021/04/22 04:00:54;;;;;;;8.68;3.95;;;;;;;;;;5094038;28;20031;-17
2021/04/22 04:03:19;;;;;;;4.07;3.03;;;;;;;;;;5094030;28;20028;-17
2021/04/22 04:05:45;;;;;;;8.15;3.60;;;;;;;;;;5093837;28;20225;-18
2021/04/22 04:08:10;;;;;;;6.68;3.20;;;;;;;;;;5094021;28;20039;-18
2021/04/22 04:10:35;;;;;;;4.95;3.22;;;;;;;;;;5093622;28;20028;-17
2021/04/22 04:13:01;;;;;;;3.17;2.47;;;;;;;;;;5093817;28;20032;-17
2021/04/22 04:15:26;;;;;;;3.17;2.65;;;;;;;;;;5093975;28;20478;-17
2021/04/22 04:17:52;;;;;;;4.55;3.20;;;;;;;;;;5093970;28;20032;-17
2021/04/22 04:20:17;;;;;;;4.82;3.47;;;;;;;;;;5093675;28;20077;-18
2021/04/22 04:22:43;;;;;;;5.20;3.80;;;;;;;;;;5093443;28;20111;-18
2021/04/22 04:25:09;;;;;;;4.60;3.25;;;;;;;;;;5093725;28;20020;-18
2021/04/22 04:27:34;;;;;;;4.93;2.88;;;;;;;;;;5091900;28;20474;-17
2021/04/22 04:30:00;;;;;;;6.20;3.97;;;;;;;;;;5092235;28;20028;-17
2021/04/22 04:32:26;;;;;;;5.82;3.60;;;;;;;;;;5093203;28;20051;-17
2021/04/22 04:34:51;;;;;;;5.47;3.03;;;;;;;;;;5093408;28;20040;-18
2021/04/22 04:37:17;;;;;;;6.38;3.25;;;;;;;;;;5092800;28;20028;-17
2021/04/22 04:39:42;;;;;;;6.15;3.80;;;;;;;;;;5093249;28;20019;-18
2021/04/22 04:42:08;;;;;;;5.05;3.55;;;;;;;;;;5093490;28;20028;-17
2021/04/22 04:44:34;;;;;;;6.28;4.75;;;;;;;;;;5093425;28;20091;-18
2021/04/22 04:46:59;;;;;;;5.82;3.83;;;;;;;;;;5093121;28;20032;-18
2021/04/22 04:49:24;;;;;;;6.18;4.50;;;;;;;;;;5093308;28;20020;-17
2021/04/22 04:51:50;;;;;;;4.70;3.03;;;;;;;;;;5093000;28;20097;-17
2021/04/22 04:54:16;;;;;;;4.75;3.15;;;;;;;;;;5092581;28;20352;-18
2021/04/22 04:56:42;;;;;;;3.65;2.95;;;;;;;;;;5092674;28;20119;-19
2021/04/22 04:59:07;;;;;;;4.78;3.58;;;;;;;;;;5092959;28;20107;-19
2021/04/22 05:01:32;;;;;;;5.47;3.55;;;;;;;;;;5093022;28;20032;-18
2021/04/22 05:03:58;;;;;;;7.25;3.45;;;;;;;;;;5093037;28;20537;-17
2021/04/22 05:06:24;;;;;;;12.80;4.03;;;;;;;;;;5092647;28;20020;-19
2021/04/22 05:08:49;;;;;;;5.13;3.05;;;;;;;;;;5092727;28;20024;-18
2021/04/22 05:11:15;;;;;;;7.80;3.33;;;;;;;;;;5092729;28;20427;-18
2021/04/22 05:13:40;;;;;;;3.78;2.70;;;;;;;;;;5091371;28;20018;-18
2021/04/22 05:16:06;;;;;;;4.70;2.75;;;;;;;;;;4736370;28;10000138;-19
2021/04/22 05:18:31;;;;;;;3.80;2.60;;;;;;;;;;5089005;28;20543;-19
2021/04/22 05:20:57;;;;;;;4.93;3.00;;;;;;;;;;5089296;28;20107;-18
2021/04/22 05:23:23;;;;;;;3.58;2.65;;;;;;;;;;5088987;28;20503;-18
2021/04/22 05:25:49;;;;;;;3.85;2.88;;;;;;;;;;5087708;28;20054;-18
2021/04/22 05:28:15;;;;;;;6.78;2.92;;;;;;;;;;5087286;28;20070;-19
2021/04/22 05:30:41;;;;;;;4.40;2.22;;;;;;;;;;5088447;28;20032;-18
2021/04/22 05:33:10;;;;;;;6.53;2.58;;;;;;;;;;5088758;28;20024;-19
2021/04/22 05:35:36;;;;;;;8.95;3.22;;;;;;;;;;5088769;28;20031;-19
2021/04/22 05:38:02;;;;;;;6.97;3.17;;;;;;;;;;5088480;28;20012;-19
2021/04/22 05:40:27;;;;;;;5.57;3.42;;;;;;;;;;5088751;28;20035;-18
2021/04/22 05:42:53;;;;;;;5.32;3.53;;;;;;;;;;5089003;28;20044;-18
2021/04/22 05:45:18;;;;;;;6.47;4.40;;;;;;;;;;5088392;28;20028;-17
2021/04/22 05:47:45;;;;;;;5.07;3.35;;;;;;;;;;5088709;28;20141;-18
2021/04/22 05:50:11;;;;;;;7.10;3.78;;;;;;;;;;5092309;28;20391;-17
2021/04/22 05:52:36;;;;;;;6.00;3.63;;;;;;;;;;5092555;28;20061;-17
2021/04/22 05:55:03;;;;;;;5.25;3.78;;;;;;;;;;5092642;28;20028;-18
2021/04/22 05:57:29;;;;;;;6.22;3.40;;;;;;;;;;5092655;28;20027;-18
2021/04/22 05:59:54;;;;;;;4.70;3.58;;;;;;;;;;5092418;28;20032;-18
2021/04/22 06:02:20;;;;;;;3.45;2.88;;;;;;;;;;5092715;28;20020;-18
2021/04/22 06:04:45;;;;;;;5.90;3.20;;;;;;;;;;5092161;28;20024;-18
2021/04/22 06:07:11;;;;;;;3.28;2.83;;;;;;;;;;5092398;28;20020;-20
2021/04/22 06:09:36;;;;;;;6.07;3.63;;;;;;;;;;5092657;28;20052;-18
2021/04/22 06:12:05;;;;;;;4.43;3.28;;;;;;;;;;5092411;28;20375;-18
2021/04/22 06:14:30;;;;;;;5.82;3.38;;;;;;;;;;5092227;28;20593;-18
2021/04/22 06:16:56;;;;;;;9.27;3.88;;;;;;;;;;5092149;28;20059;-18
2021/04/22 06:19:21;;;;;;;7.50;4.13;;;;;;;;;;5092408;28;20028;-18
2021/04/22 06:21:46;;;;;;;7.82;3.47;;;;;;;;;;5092322;28;20786;-17
2021/04/22 06:24:12;;;;;;;6.18;3.53;;;;;;;;;;5092619;28;20436;-18
2021/04/22 06:26:37;;;;;;;7.38;3.95;;;;;;;;;;5092027;28;20556;-17
2021/04/22 06:29:04;;;;;;;5.53;3.88;;;;;;;;;;5091829;28;20047;-18
2021/04/22 06:31:30;;;;;;;6.82;3.95;;;;;;;;;;5092282;28;20036;-18
2021/04/22 06:33:55;;;;;;;5.90;3.92;;;;;;;;;;5091886;28;20032;-18
2021/04/22 06:36:21;;;;;;;5.85;3.75;;;;;;;;;;5092127;28;20035;-17
2021/04/22 06:38:47;;;;;;;6.15;3.60;;;;;;;;;;5091389;28;20024;-18
2021/04/22 06:41:12;;;;;;;9.13;4.88;;;;;;;;;;5107512;28;20110;-19
2021/04/22 06:43:37;;;;;;;8.40;4.63;;;;;;;;;;5091904;28;20030;-17
2021/04/22 06:46:03;;;;;;;8.35;4.47;;;;;;;;;;5092033;28;20024;-18
2021/04/22 06:48:28;;;;;;;7.43;4.13;;;;;;;;;;5091675;28;20048;-18
2021/04/22 06:50:54;;;;;;;7.78;4.50;;;;;;;;;;5091651;28;20118;-18
2021/04/22 06:53:19;;;;;;;8.80;5.82;;;;;;;;;;5091806;28;20494;-18
2021/04/22 06:55:45;;;;;;;6.63;4.82;;;;;;;;;;5107372;28;20023;-18
2021/04/22 06:58:10;;;;;;;13.02;5.00;;;;;;;;;;5091622;28;20037;-18
2021/04/22 07:00:37;;;;;;;6.95;4.38;;;;;;;;;;5090253;28;20450;-17
2021/04/22 07:03:02;;;;;;;8.00;4.60;;;;;;;;;;5090807;28;20040;-18
2021/04/22 07:05:28;;;;;;;7.55;4.57;;;;;;;;;;5091423;28;20026;-18
2021/04/22 07:07:53;;;;;;;6.88;4.65;;;;;;;;;;5091561;28;20024;-18
2021/04/22 07:10:19;;;;;;;9.63;4.65;;;;;;;;;;5091570;28;20462;-17
2021/04/22 07:12:44;;;;;;;6.32;4.00;;;;;;;;;;5091450;28;20073;-18
2021/04/22 07:15:10;;;;;;;4.18;3.20;;;;;;;;;;5091344;28;20020;-18
2021/04/22 07:17:36;;;;;;;7.38;3.28;;;;;;;;;;5091142;28;20239;-18
2021/04/22 07:20:04;;;;;;;9.05;3.30;;;;;;;;;;5091225;28;20847;-18
2021/04/22 07:22:29;;;;;;;4.93;3.15;;;;;;;;;;5090675;28;20032;-18
2021/04/22 07:24:55;;;;;;;9.52;4.53;;;;;;;;;;5091214;28;20039;-17
2021/04/22 07:27:21;;;;;;;13.00;5.65;;;;;;;;;;5090499;28;20060;-18
2021/04/22 07:29:47;;;;;;;9.50;6.35;;;;;;;;;;5091079;28;20494;-18
2021/04/22 07:32:14;;;;;;;11.05;6.60;;;;;;;;;;5106603;28;20085;-17
2021/04/22 07:34:40;;;;;;;13.02;6.88;;;;;;;;;;5091257;28;20020;-18
2021/04/22 07:37:05;;;;;;;10.20;5.25;;;;;;;;;;5090805;28;20421;-18
2021/04/22 07:39:31;;;;;;;10.43;5.60;;;;;;;;;;5090674;28;20028;-18
2021/04/22 07:41:56;;;;;;;10.30;5.00;;;;;;;;;;5106165;28;20055;-19
2021/04/22 07:44:22;;;;;;;9.30;5.05;;;;;;;;;;5090704;28;20042;-18
2021/04/22 07:46:48;;;;;;;9.10;5.13;;;;;;;;;;5090613;28;20028;-18
2021/04/22 07:49:13;;;;;;;8.98;5.38;;;;;;;;;;5090659;28;20024;-18
2021/04/22 07:51:39;;;;;;;10.68;6.05;;;;;;;;;;5089944;28;20539;-25
2021/04/22 07:54:04;;;;;;;8.65;5.32;;;;;;;;;;5090876;28;20016;-25
2021/04/22 07:56:30;;;;;;;11.40;6.00;;;;;;;;;;5090871;28;20157;-17
2021/04/22 07:58:55;;;;;;;6.13;3.90;;;;;;;;;;5090768;28;20490;-17
2021/04/22 08:01:21;;;;;;;7.50;4.85;;;;;;;;;;5090301;28;20032;-17
2021/04/22 08:03:46;;;;;;;7.13;3.90;;;;;;;;;;5090396;28;20016;-18
2021/04/22 08:06:12;;;;;;;8.80;4.38;;;;;;;;;;5090421;28;20120;-18
2021/04/22 08:08:38;;;;;;;7.28;4.55;;;;;;;;;;5090519;28;20023;-18
2021/04/22 08:11:03;;;;;;;7.28;4.30;;;;;;;;;;5090490;28;20040;-17
2021/04/22 08:13:29;;;;;;;8.10;3.88;;;;;;;;;;5089018;28;20028;-17
2021/04/22 08:15:54;;;;;;;7.50;2.95;;;;;;;;;;5090217;28;20028;-17
2021/04/22 08:18:22;;;;;;;5.20;3.15;;;;;;;;;;5090751;28;20047;-18
2021/04/22 08:20:47;;;;;;;7.95;2.17;;;;;;;;;;5090387;28;20054;-17
2021/04/22 08:23:13;;;;;;;1.92;1.75;;;;;;;;;;5090306;28;20020;-17
2021/04/22 08:25:49;;;;;;;3.40;1.92;;;;;;;;;;5089707;28;20059;-17
2021/04/22 08:28:16;;;;;;;4.22;1.45;;;;;;;;;;5088982;28;20044;-18
2021/04/22 08:30:46;;;;;;;2.08;1.38;;;;;;;;;;5089871;28;20044;-18
2021/04/22 08:33:13;;;;;;;3.45;1.42;;;;;;;;;;5090151;28;20410;-17
2021/04/22 08:35:38;;;;;;;2.63;1.38;;;;;;;;;;5089900;28;20020;-18
2021/04/22 08:38:03;;;;;;;3.60;1.33;;;;;;;;;;5090081;28;20420;-20
2021/04/22 08:40:29;;;;;;;1.75;1.50;;;;;;;;;;5089156;28;20287;-17
2021/04/22 08:42:55;;;;;;;1.98;1.23;;;;;;;;;;5089853;28;20051;-18
2021/04/22 08:45:20;;;;;;;3.45;1.45;;;;;;;;;;5089796;28;20086;-17
2021/04/22 08:47:46;;;;;;;4.40;1.70;;;;;;;;;;5088492;28;20451;-17
2021/04/22 08:50:13;;;;;;;3.45;2.22;;;;;;;;;;5088835;28;20039;-17
2021/04/22 08:52:38;;;;;;;1.67;1.35;;;;;;;;;;5089074;28;20054;-17
2021/04/22 08:55:05;;;;;;;4.20;1.35;;;;;;;;;;5087937;28;20051;-17
2021/04/22 08:57:31;;;;;;;2.90;1.35;;;;;;;;;;5089614;28;20085;-17
2021/04/22 08:59:56;;;;;;;3.28;1.23;;;;;;;;;;5089561;28;20032;-17
2021/04/22 09:02:22;;;;;;;1.98;1.73;;;;;;;;;;5089172;28;20046;-17
2021/04/22 09:04:47;;;;;;;4.68;1.45;;;;;;;;;;5089277;28;20020;-17
2021/04/22 09:07:13;;;;;;;3.45;1.52;;;;;;;;;;5088984;28;20421;-17
2021/04/22 09:09:39;;;;;;;1.95;1.50;;;;;;;;;;5104774;28;20466;-17
2021/04/22 09:12:14;;;;;;;4.28;1.85;;;;;;;;;;5088782;28;20106;-17
2021/04/22 09:14:50;;;;;;;3.67;1.77;;;;;;;;;;5088373;28;20545;-17
2021/04/22 09:17:19;;;;;;;2.65;1.80;;;;;;;;;;5088838;28;20027;-18
2021/04/22 09:19:44;;;;;;;2.38;1.80;;;;;;;;;;5088938;28;20034;-19
2021/04/22 09:22:10;;;;;;;4.20;1.77;;;;;;;;;;5088964;28;20028;-17
2021/04/22 09:24:35;;;;;;;2.88;1.70;;;;;;;;;;5088415;28;20016;-18
2021/04/22 09:27:04;;;;;;;1.73;1.33;;;;;;;;;;5088369;28;20055;-18
2021/04/22 09:29:41;;;;;;;1.25;1.02;;;;;;;;;;5088435;28;20043;-17
2021/04/22 09:32:07;;;;;;;3.47;1.27;;;;;;;;;;5088448;28;20036;-18
2021/04/22 09:34:32;;;;;;;3.03;1.50;;;;;;;;;;5088630;28;20066;-18
2021/04/22 09:36:58;;;;;;;1.65;1.27;;;;;;;;;;5088662;28;20032;-18
2021/04/22 09:39:25;;;;;;;1.98;1.42;;;;;;;;;;5088346;28;20480;-17
2021/04/22 09:41:52;;;;;;;2.38;1.75;;;;;;;;;;5088358;28;20046;-17
2021/04/22 09:44:18;;;;;;;2.67;1.55;;;;;;;;;;5088191;28;20459;-17
2021/04/22 09:46:46;;;;;;;4.95;1.70;;;;;;;;;;5088175;28;20509;-17
2021/04/22 09:49:18;;;;;;;2.00;1.55;;;;;;;;;;5088282;28;20419;-18
2021/04/22 09:51:45;;;;;;;3.17;2.13;;;;;;;;;;5087846;28;20043;-17
2021/04/22 09:54:18;;;;;;;3.22;2.40;;;;;;;;;;5088223;28;20684;-17
2021/04/22 09:56:46;;;;;;;1.92;1.70;;;;;;;;;;5088791;28;20071;-18
2021/04/22 09:59:17;;;;;;;1.88;1.55;;;;;;;;;;5088214;28;20029;-19
2021/04/22 10:01:42;;;;;;;3.45;1.75;;;;;;;;;;5088051;28;20034;-17
2021/04/22 10:04:08;;;;;;;3.33;1.30;;;;;;;;;;5087816;28;20028;-18
2021/04/22 10:06:37;;;;;;;3.72;2.08;;;;;;;;;;5086889;28;20375;-17
2021/04/22 10:09:03;;;;;;;1.30;1.20;;;;;;;;;;5088595;28;20032;-17
2021/04/22 10:11:39;;;;;;;31.40;15.63;;;;;;;;;;5103978;28;20100;-18
2021/04/22 10:14:04;;;;;;;5.63;3.38;;;;;;;;;;5088432;28;20032;-18
2021/04/22 10:16:30;;;;;;;2.50;1.60;;;;;;;;;;5088000;28;20073;-18
2021/04/22 10:18:56;;;;;;;3.17;1.75;;;;;;;;;;5088319;28;20027;-17
2021/04/22 10:21:21;;;;;;;2.13;1.50;;;;;;;;;;5081384;28;20020;-18
2021/04/22 10:23:50;;;;;;;2.80;1.63;;;;;;;;;;5088136;28;20024;-18
2021/04/22 10:26:20;;;;;;;2.78;1.60;;;;;;;;;;5088075;28;20174;-18
2021/04/22 10:28:46;;;;;;;2.33;2.00;;;;;;;;;;5087503;28;20123;-18
2021/04/22 10:31:11;;;;;;;4.25;2.17;;;;;;;;;;5088121;28;20603;-18
2021/04/22 10:33:36;;;;;;;3.92;2.03;;;;;;;;;;5090832;28;20024;-17
2021/04/22 10:36:02;;;;;;;3.83;2.45;;;;;;;;;;5094724;28;20016;-17
2021/04/22 10:38:28;;;;;;;1.85;1.30;;;;;;;;;;5095690;28;20024;-18
2021/04/22 10:40:54;;;;;;;3.53;1.73;;;;;;;;;;5091907;28;20073;-17
2021/04/22 10:43:20;;;;;;;1.75;1.60;;;;;;;;;;5091713;28;20935;-19
2021/04/22 10:45:46;;;;;;;4.20;2.08;;;;;;;;;;5091909;28;20026;-20
2021/04/22 10:48:12;;;;;;;1.92;1.55;;;;;;;;;;5092175;28;20035;-18
2021/04/22 10:50:40;;;;;;;1.80;1.60;;;;;;;;;;5092096;28;20040;-19
2021/04/22 10:53:07;;;;;;;3.17;2.17;;;;;;;;;;5091836;28;20031;-19
2021/04/22 10:55:33;;;;;;;7.47;2.00;;;;;;;;;;5091972;28;20077;-19
2021/04/22 10:58:11;;;;;;;1.95;1.48;;;;;;;;;;5091974;28;20107;-19
2021/04/22 11:00:37;;;;;;;2.30;2.08;;;;;;;;;;5090542;28;20062;-18
2021/04/22 11:03:03;;;;;;;5.10;2.17;;;;;;;;;;5091087;28;20028;-20
2021/04/22 11:05:30;;;;;;;2.65;1.75;;;;;;;;;;5091883;28;20032;-18
2021/04/22 11:07:55;;;;;;;2.42;1.70;;;;;;;;;;5091528;28;20024;-17
2021/04/22 11:10:21;;;;;;;1.92;1.17;;;;;;;;;;5091301;28;20046;-17
2021/04/22 11:12:46;;;;;;;2.70;1.58;;;;;;;;;;5091242;28;20022;-17
2021/04/22 11:15:19;;;;;;;2.42;1.45;;;;;;;;;;5090883;28;20028;-17
2021/04/22 11:17:44;;;;;;;2.80;1.65;;;;;;;;;;5091443;28;20542;-17
2021/04/22 11:20:12;;;;;;;3.50;1.70;;;;;;;;;;5091547;28;20105;-18
2021/04/22 11:22:38;;;;;;;2.15;1.80;;;;;;;;;;5091513;28;20020;-17
2021/04/22 11:25:05;;;;;;;3.58;1.98;;;;;;;;;;5091176;28;20034;-17
2021/04/22 11:27:31;;;;;;;4.00;1.48;;;;;;;;;;5090615;28;20036;-19
2021/04/22 11:29:57;;;;;;;2.28;1.80;;;;;;;;;;5091200;28;20047;-18
2021/04/22 11:32:30;;;;;;;3.22;1.10;;;;;;;;;;5094766;28;20024;-18
2021/04/22 11:35:10;;;;;;;4.18;2.15;;;;;;;;;;5094629;28;20103;-18
2021/04/22 11:37:40;;;;;;;4.80;2.17;;;;;;;;;;5094744;28;20103;-18
2021/04/22 11:40:17;;;;;;;2.80;2.42;;;;;;;;;;5094445;28;20024;-18
2021/04/22 11:42:47;;;;;;;2.45;2.00;;;;;;;;;;5094405;28;20085;-18
2021/04/22 11:45:18;;;;;;;2.90;2.15;;;;;;;;;;5093078;28;20065;-18
2021/04/22 11:47:48;;;;;;;2.20;1.67;;;;;;;;;;5093918;28;20501;-18
2021/04/22 11:50:17;;;;;;;2.63;1.48;;;;;;;;;;5092871;28;20036;-18
2021/04/22 11:52:47;;;;;;;2.90;1.50;;;;;;;;;;5094313;28;20094;-18
2021/04/22 11:55:14;;;;;;;1.80;1.20;;;;;;;;;;5094270;28;20023;-17
2021/04/22 11:57:48;;;;;;;1.50;1.10;;;;;;;;;;5094026;28;20039;-18
2021/04/22 12:00:14;;;;;;;1.23;0.90;;;;;;;;;;5093979;28;20039;-17
2021/04/22 12:02:40;;;;;;;3.15;1.52;;;;;;;;;;5093938;28;20428;-17
2021/04/22 12:05:06;;;;;;;3.90;2.17;;;;;;;;;;5094270;28;20097;-18
2021/04/22 12:07:32;;;;;;;1.88;1.42;;;;;;;;;;5093920;28;20474;-18
2021/04/22 12:09:58;;;;;;;2.20;1.80;;;;;;;;;;5094098;28;20068;-18
2021/04/22 12:12:24;;;;;;;4.32;1.85;;;;;;;;;;5093911;28;20093;-18
2021/04/22 12:14:54;;;;;;;1.15;0.95;;;;;;;;;;5093773;28;20028;-17
2021/04/22 12:17:21;;;;;;;2.70;1.70;;;;;;;;;;5092542;28;20364;-17
2021/04/22 12:19:50;;;;;;;2.63;1.65;;;;;;;;;;5093918;28;20032;-17
2021/04/22 12:22:25;;;;;;;1.70;1.05;;;;;;;;;;5093983;28;20102;-17
2021/04/22 12:24:51;;;;;;;3.20;2.33;;;;;;;;;;5093824;28;20038;-18
2021/04/22 12:27:24;;;;;;;0.73;0.73;;;;;;;;;;5109459;28;20024;-17
2021/04/22 12:29:50;;;;;;;4.55;2.42;;;;;;;;;;5093309;28;20042;-17
2021/04/22 12:32:15;;;;;;;2.17;1.33;;;;;;;;;;5093583;28;20406;-18
2021/04/22 12:34:40;;;;;;;3.95;1.52;;;;;;;;;;5093314;28;20036;-17
2021/04/22 12:37:07;;;;;;;2.95;1.35;;;;;;;;;;5093427;28;20016;-18
2021/04/22 12:39:34;;;;;;;1.73;1.02;;;;;;;;;;5093347;28;20071;-19
2021/04/22 12:42:06;;;;;;;1.80;1.70;;;;;;;;;;4739633;28;9999890;-20
2021/04/22 12:44:31;;;;;;;2.73;2.30;;;;;;;;;;5089683;28;20076;-19
2021/04/22 12:47:04;;;;;;;2.28;1.80;;;;;;;;;;5089715;28;20464;-19
2021/04/22 12:49:31;;;;;;;2.63;1.75;;;;;;;;;;5104251;28;20528;-19
2021/04/22 12:51:58;;;;;;;2.63;1.83;;;;;;;;;;5089542;28;20662;-20
2021/04/22 12:54:25;;;;;;;3.90;2.20;;;;;;;;;;5087753;28;20474;-19
2021/04/22 12:56:51;;;;;;;3.70;2.25;;;;;;;;;;5088773;28;20032;-19
2021/04/22 12:59:17;;;;;;;2.40;2.20;;;;;;;;;;5088439;28;20424;-17
2021/04/22 13:01:43;;;;;;;2.60;1.92;;;;;;;;;;5088855;28;20486;-17
2021/04/22 13:04:11;;;;;;;2.95;1.95;;;;;;;;;;5089534;28;20111;-17
2021/04/22 13:06:39;;;;;;;2.28;1.92;;;;;;;;;;5088830;28;20024;-18
2021/04/22 13:09:06;;;;;;;5.25;2.50;;;;;;;;;;5089378;28;20023;-18
2021/04/22 13:11:33;;;;;;;3.83;1.90;;;;;;;;;;5089426;28;20169;-18
2021/04/22 13:14:02;;;;;;;2.78;2.47;;;;;;;;;;5089332;28;20124;-17
2021/04/22 13:16:30;;;;;;;4.45;2.42;;;;;;;;;;5089180;28;20020;-17
2021/04/22 13:19:01;;;;;;;3.45;1.90;;;;;;;;;;5088474;28;20024;-17
2021/04/22 13:21:29;;;;;;;7.30;2.88;;;;;;;;;;5089159;28;20032;-18
2021/04/22 13:23:58;;;;;;;2.90;1.75;;;;;;;;;;5089076;28;20370;-17
2021/04/22 13:26:30;;;;;;;2.70;1.70;;;;;;;;;;5089117;28;20032;-17
2021/04/22 13:29:06;;;;;;;4.35;2.60;;;;;;;;;;5088830;28;20051;-18
2021/04/22 13:31:32;;;;;;;3.67;2.50;;;;;;;;;;5089228;28;20052;-18
2021/04/22 13:34:24;;;;;;;2.97;2.25;;;;;;;;;;5089316;28;20099;-17
2021/04/22 13:36:51;;;;;;;3.47;2.75;;;;;;;;;;5087989;28;20147;-17
2021/04/22 13:39:23;;;;;;;0.38;0.38;;;;;;;;;;5089402;28;20036;-17
2021/04/22 13:41:49;;;;;;;3.35;2.30;;;;;;;;;;5088371;28;20016;-17
2021/04/22 13:44:15;;;;;;;3.15;2.42;;;;;;;;;;5089065;28;20181;-18
2021/04/22 13:46:49;;;;;;;4.38;2.53;;;;;;;;;;5088746;28;20500;-17
2021/04/22 13:49:15;;;;;;;4.60;1.98;;;;;;;;;;5088827;28;20028;-17
2021/04/22 13:51:41;;;;;;;4.43;2.17;;;;;;;;;;5089111;28;20387;-17
2021/04/22 13:54:10;;;;;;;5.28;2.58;;;;;;;;;;5088877;28;20028;-18
2021/04/22 13:56:36;;;;;;;7.25;3.35;;;;;;;;;;5089117;28;20029;-18
2021/04/22 13:59:06;;;;;;;4.85;2.55;;;;;;;;;;5088991;28;20025;-17
2021/04/22 14:01:31;;;;;;;4.07;2.83;;;;;;;;;;5104623;28;20082;-18
2021/04/22 14:03:57;;;;;;;4.82;3.08;;;;;;;;;;5088527;28;20463;-18
2021/04/22 14:06:36;;;;;;;7.93;2.65;;;;;;;;;;5088522;28;20056;-18
2021/04/22 14:09:02;;;;;;;3.28;1.88;;;;;;;;;;5089846;28;20498;-17
2021/04/22 14:11:33;;;;;;;2.67;2.17;;;;;;;;;;5092708;28;20032;-18
2021/04/22 14:13:59;;;;;;;3.45;2.30;;;;;;;;;;5093240;28;20024;-18
2021/04/22 14:16:24;;;;;;;4.13;2.70;;;;;;;;;;5092952;28;20366;-17
2021/04/22 14:18:53;;;;;;;5.15;2.88;;;;;;;;;;5092685;28;20360;-18
2021/04/22 14:21:18;;;;;;;3.60;2.30;;;;;;;;;;5092614;28;20032;-18
2021/04/22 14:23:44;;;;;;;2.85;1.70;;;;;;;;;;5092210;28;20034;-18
2021/04/22 14:26:11;;;;;;;13.48;2.53;;;;;;;;;;5092409;28;20059;-18
2021/04/22 14:28:36;;;;;;;2.67;2.10;;;;;;;;;;5092382;28;20044;-18
2021/04/22 14:31:02;;;;;;;2.92;2.13;;;;;;;;;;5091896;28;20067;-17
2021/04/22 14:33:27;;;;;;;8.35;2.28;;;;;;;;;;5092198;28;20034;-18
2021/04/22 14:35:52;;;;;;;7.32;2.90;;;;;;;;;;5092427;28;20382;-18
2021/04/22 14:38:18;;;;;;;3.47;2.40;;;;;;;;;;5091975;28;20398;-18
2021/04/22 14:40:43;;;;;;;2.25;1.63;;;;;;;;;;5108172;28;20032;-17